sensor_id;sensor_type;location;lat;lon;timestamp;pressure;altitude;pressure_sealevel;temperature;humidity
34235;BME280;20500;49.856;20.290;2023-03-13T00:02:17;98521.50;;;3.52;55.68
34235;BME280;20500;49.856;20.290;2023-03-13T00:05:23;98514.89;;;3.52;55.91
34235;BME280;20500;49.856;20.290;2023-03-13T00:08:30;98503.60;;;3.50;55.96
34235;BME280;20500;49.856;20.290;2023-03-13T00:11:36;98500.91;;;3.48;55.93
34235;BME280;20500;49.856;20.290;2023-03-13T00:14:42;98500.98;;;3.48;56.00
34235;BME280;20500;49.856;20.290;2023-03-13T00:17:48;98501.58;;;3.47;56.07
34235;BME280;20500;49.856;20.290;2023-03-13T00:20:59;98502.74;;;3.48;56.13
34235;BME280;20500;49.856;20.290;2023-03-13T00:24:08;98509.52;;;3.48;56.08
34235;BME280;20500;49.856;20.290;2023-03-13T00:27:15;98501.34;;;3.49;56.41
34235;BME280;20500;49.856;20.290;2023-03-13T00:30:19;98506.48;;;3.50;56.45
34235;BME280;20500;49.856;20.290;2023-03-13T00:33:25;98505.91;;;3.48;56.60
34235;BME280;20500;49.856;20.290;2023-03-13T00:36:33;98502.28;;;3.47;56.62
34235;BME280;20500;49.856;20.290;2023-03-13T00:39:39;98508.77;;;3.46;56.62
34235;BME280;20500;49.856;20.290;2023-03-13T00:42:45;98510.95;;;3.48;56.56
34235;BME280;20500;49.856;20.290;2023-03-13T00:45:51;98505.88;;;3.49;56.71
34235;BME280;20500;49.856;20.290;2023-03-13T00:48:57;98495.79;;;3.49;56.74
34235;BME280;20500;49.856;20.290;2023-03-13T00:52:02;98490.72;;;3.50;56.87
34235;BME280;20500;49.856;20.290;2023-03-13T00:55:10;98483.72;;;3.50;57.00
34235;BME280;20500;49.856;20.290;2023-03-13T00:58:15;98479.20;;;3.52;57.12
34235;BME280;20500;49.856;20.290;2023-03-13T01:01:23;98473.42;;;3.56;57.35
34235;BME280;20500;49.856;20.290;2023-03-13T01:04:29;98461.84;;;3.62;57.32
34235;BME280;20500;49.856;20.290;2023-03-13T01:07:35;98455.50;;;3.70;57.33
34235;BME280;20500;49.856;20.290;2023-03-13T01:10:41;98459.19;;;3.74;57.48
34235;BME280;20500;49.856;20.290;2023-03-13T01:13:47;98461.55;;;3.76;57.73
34235;BME280;20500;49.856;20.290;2023-03-13T01:16:54;98463.36;;;3.75;57.78
34235;BME280;20500;49.856;20.290;2023-03-13T01:19:59;98460.44;;;3.74;57.84
34235;BME280;20500;49.856;20.290;2023-03-13T01:23:05;98452.92;;;3.74;57.86
34235;BME280;20500;49.856;20.290;2023-03-13T01:26:12;98450.11;;;3.73;57.90
34235;BME280;20500;49.856;20.290;2023-03-13T01:29:18;98449.05;;;3.71;58.15
34235;BME280;20500;49.856;20.290;2023-03-13T01:32:24;98439.71;;;3.70;58.23
34235;BME280;20500;49.856;20.290;2023-03-13T01:35:30;98432.58;;;3.70;58.36
34235;BME280;20500;49.856;20.290;2023-03-13T01:38:36;98437.82;;;3.69;58.43
34235;BME280;20500;49.856;20.290;2023-03-13T01:41:40;98438.60;;;3.70;58.61
34235;BME280;20500;49.856;20.290;2023-03-13T01:44:53;98431.98;;;3.70;58.63
34235;BME280;20500;49.856;20.290;2023-03-13T01:47:59;98428.34;;;3.70;58.76
34235;BME280;20500;49.856;20.290;2023-03-13T01:51:09;98425.70;;;3.72;58.89
34235;BME280;20500;49.856;20.290;2023-03-13T01:54:19;98424.25;;;3.74;58.97
34235;BME280;20500;49.856;20.290;2023-03-13T01:57:28;98427.11;;;3.77;59.10
34235;BME280;20500;49.856;20.290;2023-03-13T02:00:37;98429.84;;;3.84;59.05
34235;BME280;20500;49.856;20.290;2023-03-13T02:03:47;98434.44;;;3.88;59.17
34235;BME280;20500;49.856;20.290;2023-03-13T02:06:55;98437.19;;;3.91;59.22
34235;BME280;20500;49.856;20.290;2023-03-13T02:10:03;98444.58;;;3.93;59.33
34235;BME280;20500;49.856;20.290;2023-03-13T02:13:09;98443.58;;;3.94;59.40
34235;BME280;20500;49.856;20.290;2023-03-13T02:16:19;98444.14;;;3.94;59.52
34235;BME280;20500;49.856;20.290;2023-03-13T02:19:30;98447.21;;;3.91;59.59
34235;BME280;20500;49.856;20.290;2023-03-13T02:22:47;98455.33;;;3.91;59.70
34235;BME280;20500;49.856;20.290;2023-03-13T02:25:53;98459.19;;;3.94;59.92
34235;BME280;20500;49.856;20.290;2023-03-13T02:28:59;98468.52;;;3.96;59.99
34235;BME280;20500;49.856;20.290;2023-03-13T02:32:07;98471.92;;;3.99;60.03
34235;BME280;20500;49.856;20.290;2023-03-13T02:35:15;98480.61;;;4.04;60.01
34235;BME280;20500;49.856;20.290;2023-03-13T02:38:24;98483.16;;;4.09;60.05
34235;BME280;20500;49.856;20.290;2023-03-13T02:41:32;98485.58;;;4.13;60.12
34235;BME280;20500;49.856;20.290;2023-03-13T02:44:40;98488.80;;;4.17;60.15
34235;BME280;20500;49.856;20.290;2023-03-13T02:47:46;98488.89;;;4.20;60.15
34235;BME280;20500;49.856;20.290;2023-03-13T02:50:52;98490.29;;;4.22;60.23
34235;BME280;20500;49.856;20.290;2023-03-13T02:53:59;98496.58;;;4.24;60.34
34235;BME280;20500;49.856;20.290;2023-03-13T02:57:07;98502.52;;;4.25;60.31
34235;BME280;20500;49.856;20.290;2023-03-13T03:00:14;98506.52;;;4.26;60.33
34235;BME280;20500;49.856;20.290;2023-03-13T03:03:20;98513.05;;;4.27;60.48
34235;BME280;20500;49.856;20.290;2023-03-13T03:06:26;98517.29;;;4.28;60.57
34235;BME280;20500;49.856;20.290;2023-03-13T03:09:32;98524.34;;;4.29;60.61
34235;BME280;20500;49.856;20.290;2023-03-13T03:12:38;98529.52;;;4.31;60.56
34235;BME280;20500;49.856;20.290;2023-03-13T03:15:44;98530.90;;;4.34;60.79
34235;BME280;20500;49.856;20.290;2023-03-13T03:18:49;98530.41;;;4.37;60.73
34235;BME280;20500;49.856;20.290;2023-03-13T03:21:55;98528.84;;;4.40;60.76
34235;BME280;20500;49.856;20.290;2023-03-13T03:25:01;98528.56;;;4.45;60.84
34235;BME280;20500;49.856;20.290;2023-03-13T03:28:08;98530.52;;;4.47;60.93
34235;BME280;20500;49.856;20.290;2023-03-13T03:31:15;98526.20;;;4.48;61.01
34235;BME280;20500;49.856;20.290;2023-03-13T03:34:22;98529.42;;;4.50;61.05
34235;BME280;20500;49.856;20.290;2023-03-13T03:37:27;98526.23;;;4.51;61.09
34235;BME280;20500;49.856;20.290;2023-03-13T03:40:33;98523.30;;;4.52;61.08
34235;BME280;20500;49.856;20.290;2023-03-13T03:43:39;98522.53;;;4.52;61.17
34235;BME280;20500;49.856;20.290;2023-03-13T03:46:45;98522.93;;;4.54;61.31
34235;BME280;20500;49.856;20.290;2023-03-13T03:49:51;98528.38;;;4.55;61.46
34235;BME280;20500;49.856;20.290;2023-03-13T03:52:57;98530.54;;;4.57;61.36
34235;BME280;20500;49.856;20.290;2023-03-13T03:56:04;98525.17;;;4.58;61.46
34235;BME280;20500;49.856;20.290;2023-03-13T03:59:10;98527.16;;;4.60;61.57
34235;BME280;20500;49.856;20.290;2023-03-13T04:02:16;98525.73;;;4.61;61.59
34235;BME280;20500;49.856;20.290;2023-03-13T04:05:22;98526.38;;;4.64;61.63
34235;BME280;20500;49.856;20.290;2023-03-13T04:08:28;98529.47;;;4.67;61.76
34235;BME280;20500;49.856;20.290;2023-03-13T04:11:34;98532.17;;;4.69;61.83
34235;BME280;20500;49.856;20.290;2023-03-13T04:14:40;98532.92;;;4.70;61.80
34235;BME280;20500;49.856;20.290;2023-03-13T04:17:46;98533.35;;;4.72;61.93
34235;BME280;20500;49.856;20.290;2023-03-13T04:21:00;98531.45;;;4.72;62.06
34235;BME280;20500;49.856;20.290;2023-03-13T04:24:08;98533.52;;;4.72;62.05
34235;BME280;20500;49.856;20.290;2023-03-13T04:27:14;98532.67;;;4.71;62.05
34235;BME280;20500;49.856;20.290;2023-03-13T04:30:19;98536.66;;;4.71;62.12
34235;BME280;20500;49.856;20.290;2023-03-13T04:33:25;98536.58;;;4.71;62.37
34235;BME280;20500;49.856;20.290;2023-03-13T04:36:31;98538.39;;;4.73;62.34
34235;BME280;20500;49.856;20.290;2023-03-13T04:39:37;98535.70;;;4.75;62.26
34235;BME280;20500;49.856;20.290;2023-03-13T04:42:43;98534.14;;;4.78;62.50
34235;BME280;20500;49.856;20.290;2023-03-13T04:45:50;98534.02;;;4.80;62.33
34235;BME280;20500;49.856;20.290;2023-03-13T04:48:58;98542.12;;;4.82;62.52
34235;BME280;20500;49.856;20.290;2023-03-13T04:52:04;98546.33;;;4.83;62.63
34235;BME280;20500;49.856;20.290;2023-03-13T04:55:11;98539.59;;;4.84;62.66
34235;BME280;20500;49.856;20.290;2023-03-13T04:58:15;98538.30;;;4.84;62.73
34235;BME280;20500;49.856;20.290;2023-03-13T05:01:21;98531.09;;;4.84;62.74
34235;BME280;20500;49.856;20.290;2023-03-13T05:04:27;98532.15;;;4.85;62.84
34235;BME280;20500;49.856;20.290;2023-03-13T05:07:33;98533.79;;;4.84;63.07
34235;BME280;20500;49.856;20.290;2023-03-13T05:10:39;98537.76;;;4.86;63.03
34235;BME280;20500;49.856;20.290;2023-03-13T05:13:46;98535.39;;;4.88;63.10
34235;BME280;20500;49.856;20.290;2023-03-13T05:16:52;98535.42;;;4.91;63.03
34235;BME280;20500;49.856;20.290;2023-03-13T05:19:57;98533.09;;;4.95;63.05
34235;BME280;20500;49.856;20.290;2023-03-13T05:23:03;98533.64;;;4.98;63.22
34235;BME280;20500;49.856;20.290;2023-03-13T05:26:09;98535.52;;;5.00;63.24
34235;BME280;20500;49.856;20.290;2023-03-13T05:29:15;98535.56;;;5.04;63.30
34235;BME280;20500;49.856;20.290;2023-03-13T05:32:21;98536.23;;;5.08;63.58
34235;BME280;20500;49.856;20.290;2023-03-13T05:35:27;98539.77;;;5.12;63.52
34235;BME280;20500;49.856;20.290;2023-03-13T05:38:33;98542.24;;;5.16;63.50
34235;BME280;20500;49.856;20.290;2023-03-13T05:41:39;98539.46;;;5.20;63.55
34235;BME280;20500;49.856;20.290;2023-03-13T05:44:45;98536.73;;;5.25;63.64
34235;BME280;20500;49.856;20.290;2023-03-13T05:47:51;98530.55;;;5.31;63.78
34235;BME280;20500;49.856;20.290;2023-03-13T05:50:57;98523.95;;;5.35;63.82
34235;BME280;20500;49.856;20.290;2023-03-13T05:54:03;98516.85;;;5.40;63.80
34235;BME280;20500;49.856;20.290;2023-03-13T05:57:09;98510.83;;;5.44;63.87
34235;BME280;20500;49.856;20.290;2023-03-13T06:00:17;98506.59;;;5.48;64.00
34235;BME280;20500;49.856;20.290;2023-03-13T06:03:23;98503.40;;;5.53;64.02
34235;BME280;20500;49.856;20.290;2023-03-13T06:06:28;98500.82;;;5.57;64.01
34235;BME280;20500;49.856;20.290;2023-03-13T06:09:34;98499.58;;;5.60;64.04
34235;BME280;20500;49.856;20.290;2023-03-13T06:12:40;98499.02;;;5.63;64.06
34235;BME280;20500;49.856;20.290;2023-03-13T06:15:52;98499.39;;;5.67;64.14
34235;BME280;20500;49.856;20.290;2023-03-13T06:18:59;98499.02;;;5.70;64.14
34235;BME280;20500;49.856;20.290;2023-03-13T06:22:05;98498.97;;;5.74;64.22
34235;BME280;20500;49.856;20.290;2023-03-13T06:25:12;98491.48;;;5.78;64.22
34235;BME280;20500;49.856;20.290;2023-03-13T06:28:18;98487.30;;;5.83;64.38
34235;BME280;20500;49.856;20.290;2023-03-13T06:31:24;98488.23;;;5.90;64.40
34235;BME280;20500;49.856;20.290;2023-03-13T06:34:30;98484.69;;;5.96;64.36
34235;BME280;20500;49.856;20.290;2023-03-13T06:37:36;98481.59;;;6.02;64.56
34235;BME280;20500;49.856;20.290;2023-03-13T06:40:42;98480.08;;;6.05;64.53
34235;BME280;20500;49.856;20.290;2023-03-13T06:43:51;98476.23;;;6.09;64.48
34235;BME280;20500;49.856;20.290;2023-03-13T06:46:57;98482.72;;;6.14;64.55
34235;BME280;20500;49.856;20.290;2023-03-13T06:50:03;98477.04;;;6.20;64.78
34235;BME280;20500;49.856;20.290;2023-03-13T06:53:08;98475.31;;;6.27;64.78
34235;BME280;20500;49.856;20.290;2023-03-13T06:56:19;98469.31;;;6.34;64.69
34235;BME280;20500;49.856;20.290;2023-03-13T06:59:25;98464.36;;;6.43;64.78
34235;BME280;20500;49.856;20.290;2023-03-13T07:02:31;98460.02;;;6.53;64.86
34235;BME280;20500;49.856;20.290;2023-03-13T07:05:37;98454.26;;;6.63;64.85
34235;BME280;20500;49.856;20.290;2023-03-13T07:08:43;98453.28;;;6.73;64.84
34235;BME280;20500;49.856;20.290;2023-03-13T07:11:49;98449.54;;;6.84;65.01
34235;BME280;20500;49.856;20.290;2023-03-13T07:14:55;98441.18;;;6.97;64.85
34235;BME280;20500;49.856;20.290;2023-03-13T07:18:00;98436.55;;;7.07;64.85
34235;BME280;20500;49.856;20.290;2023-03-13T07:21:08;98436.86;;;7.19;64.98
34235;BME280;20500;49.856;20.290;2023-03-13T07:24:14;98437.65;;;7.29;64.91
34235;BME280;20500;49.856;20.290;2023-03-13T07:27:20;98434.20;;;7.38;65.02
34235;BME280;20500;49.856;20.290;2023-03-13T07:30:25;98431.59;;;7.44;65.01
34235;BME280;20500;49.856;20.290;2023-03-13T07:33:30;98427.15;;;7.50;65.06
34235;BME280;20500;49.856;20.290;2023-03-13T07:36:36;98425.18;;;7.56;64.89
34235;BME280;20500;49.856;20.290;2023-03-13T07:39:44;98424.29;;;7.63;64.97
34235;BME280;20500;49.856;20.290;2023-03-13T07:42:51;98422.80;;;7.73;64.91
34235;BME280;20500;49.856;20.290;2023-03-13T07:45:58;98427.88;;;7.84;64.90
34235;BME280;20500;49.856;20.290;2023-03-13T07:49:04;98423.73;;;7.94;64.93
34235;BME280;20500;49.856;20.290;2023-03-13T07:52:10;98417.94;;;8.04;64.90
34235;BME280;20500;49.856;20.290;2023-03-13T07:55:16;98417.18;;;8.13;65.05
34235;BME280;20500;49.856;20.290;2023-03-13T07:58:23;98417.75;;;8.22;65.05
34235;BME280;20500;49.856;20.290;2023-03-13T08:01:29;98419.38;;;8.29;65.03
34235;BME280;20500;49.856;20.290;2023-03-13T08:04:35;98418.37;;;8.38;65.00
34235;BME280;20500;49.856;20.290;2023-03-13T08:07:40;98410.44;;;8.50;64.98
34235;BME280;20500;49.856;20.290;2023-03-13T08:10:48;98408.02;;;8.64;65.02
34235;BME280;20500;49.856;20.290;2023-03-13T08:13:55;98397.73;;;8.80;64.95
34235;BME280;20500;49.856;20.290;2023-03-13T08:17:01;98400.66;;;8.96;64.95
34235;BME280;20500;49.856;20.290;2023-03-13T08:20:09;98397.23;;;9.12;64.92
34235;BME280;20500;49.856;20.290;2023-03-13T08:23:15;98396.83;;;9.26;64.80
34235;BME280;20500;49.856;20.290;2023-03-13T08:26:23;98389.08;;;9.36;64.76
34235;BME280;20500;49.856;20.290;2023-03-13T08:29:29;98389.04;;;9.44;64.68
34235;BME280;20500;49.856;20.290;2023-03-13T08:32:35;98390.13;;;9.53;64.72
34235;BME280;20500;49.856;20.290;2023-03-13T08:35:41;98388.63;;;9.58;64.58
34235;BME280;20500;49.856;20.290;2023-03-13T08:38:48;98395.95;;;9.63;64.49
34235;BME280;20500;49.856;20.290;2023-03-13T08:41:54;98400.06;;;9.68;64.49
34235;BME280;20500;49.856;20.290;2023-03-13T08:45:00;98396.98;;;9.72;64.34
34235;BME280;20500;49.856;20.290;2023-03-13T08:48:06;98399.08;;;9.81;64.38
34235;BME280;20500;49.856;20.290;2023-03-13T08:51:13;98393.48;;;9.90;64.04
34235;BME280;20500;49.856;20.290;2023-03-13T08:54:19;98394.02;;;9.95;64.01
34235;BME280;20500;49.856;20.290;2023-03-13T08:57:25;98393.23;;;10.03;63.92
34235;BME280;20500;49.856;20.290;2023-03-13T09:00:31;98387.98;;;10.07;63.77
34235;BME280;20500;49.856;20.290;2023-03-13T09:03:37;98386.05;;;10.10;63.57
34235;BME280;20500;49.856;20.290;2023-03-13T09:06:44;98381.37;;;10.15;63.42
34235;BME280;20500;49.856;20.290;2023-03-13T09:09:50;98380.28;;;10.24;63.41
34235;BME280;20500;49.856;20.290;2023-03-13T09:12:56;98373.92;;;10.32;63.44
34235;BME280;20500;49.856;20.290;2023-03-13T09:16:05;98371.42;;;10.39;63.36
34235;BME280;20500;49.856;20.290;2023-03-13T09:19:11;98363.91;;;10.47;63.14
34235;BME280;20500;49.856;20.290;2023-03-13T09:22:17;98364.99;;;10.54;63.13
34235;BME280;20500;49.856;20.290;2023-03-13T09:25:23;98367.21;;;10.59;62.99
34235;BME280;20500;49.856;20.290;2023-03-13T09:28:29;98364.48;;;10.66;62.85
34235;BME280;20500;49.856;20.290;2023-03-13T09:31:35;98359.48;;;10.78;62.81
34235;BME280;20500;49.856;20.290;2023-03-13T09:34:42;98357.46;;;10.90;62.76
34235;BME280;20500;49.856;20.290;2023-03-13T09:37:48;98354.55;;;11.02;62.73
34235;BME280;20500;49.856;20.290;2023-03-13T09:40:59;98358.52;;;11.10;62.65
34235;BME280;20500;49.856;20.290;2023-03-13T09:44:14;98354.75;;;11.20;62.58
34235;BME280;20500;49.856;20.290;2023-03-13T09:47:28;98351.80;;;11.29;62.40
34235;BME280;20500;49.856;20.290;2023-03-13T09:50:36;98351.80;;;11.40;62.43
34235;BME280;20500;49.856;20.290;2023-03-13T09:53:48;98353.71;;;11.50;62.21
34235;BME280;20500;49.856;20.290;2023-03-13T09:56:58;98354.46;;;11.62;62.01
34235;BME280;20500;49.856;20.290;2023-03-13T10:00:09;98354.48;;;11.75;61.86
34235;BME280;20500;49.856;20.290;2023-03-13T10:03:20;98351.46;;;11.88;61.72
34235;BME280;20500;49.856;20.290;2023-03-13T10:06:29;98347.45;;;12.01;61.69
34235;BME280;20500;49.856;20.290;2023-03-13T10:09:38;98346.45;;;12.14;61.49
34235;BME280;20500;49.856;20.290;2023-03-13T10:12:50;98343.67;;;12.27;61.46
34235;BME280;20500;49.856;20.290;2023-03-13T10:15:59;98333.48;;;12.33;60.75
34235;BME280;20500;49.856;20.290;2023-03-13T10:19:12;98329.17;;;12.37;60.73
34235;BME280;20500;49.856;20.290;2023-03-13T10:22:23;98332.86;;;12.46;60.78
34235;BME280;20500;49.856;20.290;2023-03-13T10:25:32;98326.92;;;12.58;60.75
34235;BME280;20500;49.856;20.290;2023-03-13T10:28:39;98317.91;;;12.64;60.55
34235;BME280;20500;49.856;20.290;2023-03-13T10:31:49;98311.10;;;12.74;60.31
34235;BME280;20500;49.856;20.290;2023-03-13T10:34:59;98304.21;;;12.84;60.23
34235;BME280;20500;49.856;20.290;2023-03-13T10:38:10;98303.50;;;12.95;59.91
34235;BME280;20500;49.856;20.290;2023-03-13T10:41:24;98303.65;;;13.00;59.64
34235;BME280;20500;49.856;20.290;2023-03-13T10:44:33;98309.53;;;13.10;59.50
34235;BME280;20500;49.856;20.290;2023-03-13T10:47:38;98304.23;;;13.24;59.37
34235;BME280;20500;49.856;20.290;2023-03-13T10:50:47;98298.34;;;13.36;59.01
34235;BME280;20500;49.856;20.290;2023-03-13T10:53:53;98284.83;;;13.45;58.84
34235;BME280;20500;49.856;20.290;2023-03-13T11:00:34;98277.16;;;13.39;58.36
34235;BME280;20500;49.856;20.290;2023-03-13T11:03:42;98277.66;;;13.41;58.03
34235;BME280;20500;49.856;20.290;2023-03-13T11:06:53;98271.38;;;13.49;57.92
34235;BME280;20500;49.856;20.290;2023-03-13T11:10:16;98259.83;;;13.53;57.86
34235;BME280;20500;49.856;20.290;2023-03-13T11:13:32;98245.41;;;13.57;57.69
34235;BME280;20500;49.856;20.290;2023-03-13T11:16:47;98251.89;;;13.57;57.37
34235;BME280;20500;49.856;20.290;2023-03-13T11:20:10;98254.35;;;13.59;56.91
34235;BME280;20500;49.856;20.290;2023-03-13T11:23:21;98252.98;;;13.56;56.64
34235;BME280;20500;49.856;20.290;2023-03-13T11:26:35;98248.69;;;13.57;56.55
34235;BME280;20500;49.856;20.290;2023-03-13T11:29:52;98247.30;;;13.59;56.39
34235;BME280;20500;49.856;20.290;2023-03-13T11:33:02;98249.83;;;13.63;56.06
34235;BME280;20500;49.856;20.290;2023-03-13T11:36:16;98235.97;;;13.71;55.75
34235;BME280;20500;49.856;20.290;2023-03-13T11:39:52;98234.65;;;13.72;55.44
34235;BME280;20500;49.856;20.290;2023-03-13T11:43:16;98238.38;;;13.71;55.43
34235;BME280;20500;49.856;20.290;2023-03-13T11:46:38;98233.39;;;13.72;55.24
34235;BME280;20500;49.856;20.290;2023-03-13T11:49:58;98233.29;;;13.79;54.95
34235;BME280;20500;49.856;20.290;2023-03-13T11:53:15;98232.42;;;13.87;54.65
34235;BME280;20500;49.856;20.290;2023-03-13T11:56:29;98222.93;;;13.94;54.64
34235;BME280;20500;49.856;20.290;2023-03-13T11:59:42;98211.77;;;13.96;54.44
34235;BME280;20500;49.856;20.290;2023-03-13T12:02:54;98207.77;;;13.91;54.24
34235;BME280;20500;49.856;20.290;2023-03-13T12:06:03;98207.79;;;13.89;54.02
34235;BME280;20500;49.856;20.290;2023-03-13T12:09:26;98201.73;;;13.83;53.89
34235;BME280;20500;49.856;20.290;2023-03-13T12:12:38;98197.05;;;13.75;53.66
34235;BME280;20500;49.856;20.290;2023-03-13T12:15:47;98189.52;;;13.67;53.57
34235;BME280;20500;49.856;20.290;2023-03-13T12:18:55;98184.95;;;13.59;53.54
34235;BME280;20500;49.856;20.290;2023-03-13T12:22:11;98182.63;;;13.49;53.10
34235;BME280;20500;49.856;20.290;2023-03-13T12:25:22;98175.20;;;13.41;52.96
34235;BME280;20500;49.856;20.290;2023-03-13T12:28:36;98166.61;;;13.37;53.06
34235;BME280;20500;49.856;20.290;2023-03-13T12:31:48;98156.55;;;13.34;52.97
34235;BME280;20500;49.856;20.290;2023-03-13T12:35:07;98147.48;;;13.30;52.63
34235;BME280;20500;49.856;20.290;2023-03-13T12:38:23;98145.61;;;13.26;52.37
34235;BME280;20500;49.856;20.290;2023-03-13T12:41:33;98140.76;;;13.22;52.38
34235;BME280;20500;49.856;20.290;2023-03-13T12:44:45;98134.02;;;13.17;52.14
34235;BME280;20500;49.856;20.290;2023-03-13T12:48:16;98129.63;;;13.13;52.04
34235;BME280;20500;49.856;20.290;2023-03-13T12:51:35;98132.45;;;13.11;52.23
34235;BME280;20500;49.856;20.290;2023-03-13T12:54:55;98133.67;;;13.11;52.08
34235;BME280;20500;49.856;20.290;2023-03-13T12:58:27;98120.02;;;13.11;52.10
34235;BME280;20500;49.856;20.290;2023-03-13T13:01:38;98107.91;;;13.11;51.86
34235;BME280;20500;49.856;20.290;2023-03-13T13:04:47;98098.53;;;13.11;51.73
34235;BME280;20500;49.856;20.290;2023-03-13T13:07:55;98091.73;;;13.15;51.77
34235;BME280;20500;49.856;20.290;2023-03-13T13:14:55;98081.58;;;13.27;51.48
34235;BME280;20500;49.856;20.290;2023-03-13T13:18:12;98083.23;;;13.30;51.30
34235;BME280;20500;49.856;20.290;2023-03-13T13:21:23;98080.27;;;13.33;51.06
34235;BME280;20500;49.856;20.290;2023-03-13T13:24:50;98080.91;;;13.35;51.26
34235;BME280;20500;49.856;20.290;2023-03-13T13:27:56;98079.53;;;13.34;51.14
34235;BME280;20500;49.856;20.290;2023-03-13T13:31:53;98081.13;;;13.32;50.88
34235;BME280;20500;49.856;20.290;2023-03-13T13:35:05;98078.73;;;13.31;50.87
34235;BME280;20500;49.856;20.290;2023-03-13T13:41:56;98091.16;;;13.27;50.53
34235;BME280;20500;49.856;20.290;2023-03-13T13:45:03;98090.74;;;13.26;50.58
34235;BME280;20500;49.856;20.290;2023-03-13T13:48:26;98090.04;;;13.26;50.31
34235;BME280;20500;49.856;20.290;2023-03-13T13:51:34;98090.17;;;13.25;50.31
34235;BME280;20500;49.856;20.290;2023-03-13T13:54:54;98094.68;;;13.25;50.14
34235;BME280;20500;49.856;20.290;2023-03-13T13:58:02;98085.52;;;13.24;50.06
34235;BME280;20500;49.856;20.290;2023-03-13T14:01:16;98088.54;;;13.22;49.84
34235;BME280;20500;49.856;20.290;2023-03-13T14:04:26;98093.41;;;13.20;49.83
34235;BME280;20500;49.856;20.290;2023-03-13T14:07:47;98091.77;;;13.20;49.85
34235;BME280;20500;49.856;20.290;2023-03-13T14:11:06;98084.71;;;13.20;49.97
34235;BME280;20500;49.856;20.290;2023-03-13T14:14:17;98087.84;;;13.18;49.60
34235;BME280;20500;49.856;20.290;2023-03-13T14:17:23;98093.10;;;13.17;49.58
34235;BME280;20500;49.856;20.290;2023-03-13T14:20:32;98100.19;;;13.14;49.72
34235;BME280;20500;49.856;20.290;2023-03-13T14:23:40;98093.78;;;13.06;49.73
34235;BME280;20500;49.856;20.290;2023-03-13T14:26:46;98092.52;;;12.96;49.62
34235;BME280;20500;49.856;20.290;2023-03-13T14:30:02;98085.63;;;12.84;49.79
34235;BME280;20500;49.856;20.290;2023-03-13T14:33:08;98076.98;;;12.69;49.72
34235;BME280;20500;49.856;20.290;2023-03-13T14:36:13;98081.30;;;12.56;49.78
34235;BME280;20500;49.856;20.290;2023-03-13T14:39:23;98089.23;;;12.42;49.87
34235;BME280;20500;49.856;20.290;2023-03-13T14:42:44;98100.86;;;12.24;50.17
34235;BME280;20500;49.856;20.290;2023-03-13T14:45:51;98098.41;;;12.06;50.19
34235;BME280;20500;49.856;20.290;2023-03-13T14:48:55;98079.42;;;11.91;50.32
34235;BME280;20500;49.856;20.290;2023-03-13T14:52:04;98070.32;;;11.80;50.57
34235;BME280;20500;49.856;20.290;2023-03-13T14:55:31;98058.67;;;11.72;50.57
34235;BME280;20500;49.856;20.290;2023-03-13T14:58:37;98056.85;;;11.68;50.76
34235;BME280;20500;49.856;20.290;2023-03-13T15:01:44;98048.60;;;11.65;50.85
34235;BME280;20500;49.856;20.290;2023-03-13T15:04:55;98045.25;;;11.61;50.72
34235;BME280;20500;49.856;20.290;2023-03-13T15:08:03;98039.39;;;11.55;50.80
34235;BME280;20500;49.856;20.290;2023-03-13T15:11:21;98040.12;;;11.49;51.02
34235;BME280;20500;49.856;20.290;2023-03-13T15:14:38;98044.36;;;11.43;51.09
34235;BME280;20500;49.856;20.290;2023-03-13T15:17:44;98044.00;;;11.36;51.33
34235;BME280;20500;49.856;20.290;2023-03-13T15:20:52;98045.98;;;11.31;51.27
34235;BME280;20500;49.856;20.290;2023-03-13T15:24:00;98044.64;;;11.27;51.40
34235;BME280;20500;49.856;20.290;2023-03-13T15:27:13;98051.27;;;11.23;51.46
34235;BME280;20500;49.856;20.290;2023-03-13T15:30:21;98052.66;;;11.19;51.62
34235;BME280;20500;49.856;20.290;2023-03-13T15:33:29;98048.80;;;11.15;51.52
34235;BME280;20500;49.856;20.290;2023-03-13T15:36:35;98046.21;;;11.10;51.61
34235;BME280;20500;49.856;20.290;2023-03-13T15:39:41;98042.61;;;11.06;51.84
34235;BME280;20500;49.856;20.290;2023-03-13T15:42:47;98038.54;;;11.02;51.77
34235;BME280;20500;49.856;20.290;2023-03-13T15:45:53;98040.81;;;10.97;52.01
34235;BME280;20500;49.856;20.290;2023-03-13T15:48:57;98039.77;;;10.93;52.07
34235;BME280;20500;49.856;20.290;2023-03-13T15:52:04;98037.97;;;10.89;52.10
34235;BME280;20500;49.856;20.290;2023-03-13T15:55:16;98036.16;;;10.84;52.20
34235;BME280;20500;49.856;20.290;2023-03-13T15:58:22;98034.06;;;10.79;52.33
34235;BME280;20500;49.856;20.290;2023-03-13T16:01:29;98035.20;;;10.75;52.39
34235;BME280;20500;49.856;20.290;2023-03-13T16:04:35;98039.30;;;10.68;52.75
34235;BME280;20500;49.856;20.290;2023-03-13T16:07:43;98033.34;;;10.59;52.80
34235;BME280;20500;49.856;20.290;2023-03-13T16:10:50;98029.65;;;10.49;53.09
34235;BME280;20500;49.856;20.290;2023-03-13T16:13:56;98028.00;;;10.42;53.26
34235;BME280;20500;49.856;20.290;2023-03-13T16:17:03;98031.80;;;10.37;53.26
34235;BME280;20500;49.856;20.290;2023-03-13T16:20:19;98023.80;;;10.32;53.29
34235;BME280;20500;49.856;20.290;2023-03-13T16:23:25;98023.48;;;10.29;53.53
34235;BME280;20500;49.856;20.290;2023-03-13T16:26:31;98024.20;;;10.26;53.58
34235;BME280;20500;49.856;20.290;2023-03-13T16:29:37;98029.65;;;10.23;53.68
34235;BME280;20500;49.856;20.290;2023-03-13T16:32:43;98029.13;;;10.21;53.76
34235;BME280;20500;49.856;20.290;2023-03-13T16:35:49;98035.49;;;10.20;54.11
34235;BME280;20500;49.856;20.290;2023-03-13T16:38:58;98026.33;;;10.19;54.04
34235;BME280;20500;49.856;20.290;2023-03-13T16:42:05;98023.27;;;10.19;54.11
34235;BME280;20500;49.856;20.290;2023-03-13T16:45:10;98033.83;;;10.21;54.06